createdAt,value
2022-12-23T00:00:40.162Z,8.08
2022-12-23T00:01:27.951Z,8.08
2022-12-23T00:02:15.036Z,8.08
2022-12-23T00:03:01.944Z,8.07
2022-12-23T00:03:48.917Z,8.08
2022-12-23T00:04:37.133Z,8.09
2022-12-23T00:05:24.496Z,8.08
2022-12-23T00:06:14.028Z,8.09
2022-12-23T00:07:00.645Z,8.07
2022-12-23T00:07:47.375Z,8.06
2022-12-23T00:08:37.284Z,8.08
2022-12-23T00:09:23.971Z,8.08
2022-12-23T00:10:11.368Z,8.09
2022-12-23T00:10:58.420Z,8.10
2022-12-23T00:12:03.694Z,8.10
2022-12-23T00:13:09.183Z,8.09
2022-12-23T00:14:20.593Z,8.11
2022-12-23T00:15:09.323Z,8.10
2022-12-23T00:16:22.413Z,8.09
2022-12-23T00:17:22.112Z,8.11
2022-12-23T00:18:09.849Z,8.14
2022-12-23T00:18:57.193Z,8.12
2022-12-23T00:19:43.865Z,8.13
2022-12-23T00:20:30.685Z,8.13
2022-12-23T00:21:17.819Z,8.13
2022-12-23T00:22:04.348Z,8.13
2022-12-23T00:23:05.854Z,8.15
2022-12-23T00:23:52.673Z,8.16
2022-12-23T00:24:39.231Z,8.17
2022-12-23T00:25:41.709Z,8.17
2022-12-23T00:26:28.898Z,8.18
2022-12-23T00:27:17.096Z,8.21
2022-12-23T00:28:03.835Z,8.19
2022-12-23T00:28:55.416Z,8.21
2022-12-23T00:29:42.297Z,8.21
2022-12-23T00:30:29.052Z,8.23
2022-12-23T00:31:18.686Z,8.22
2022-12-23T00:32:05.467Z,8.22
2022-12-23T00:32:52.024Z,8.25
2022-12-23T00:33:44.157Z,8.26
2022-12-23T00:34:31.032Z,8.25
2022-12-23T00:35:17.860Z,8.28
2022-12-23T00:36:19.662Z,8.29
2022-12-23T00:37:06.473Z,8.26
2022-12-23T00:37:53.258Z,8.26
2022-12-23T00:38:59.271Z,8.25
2022-12-23T00:40:06.901Z,8.24
2022-12-23T00:41:12.325Z,8.23
2022-12-23T00:42:20.431Z,8.24
2022-12-23T00:43:06.994Z,8.26
2022-12-23T00:43:53.505Z,8.23
2022-12-23T00:44:40.111Z,8.23
2022-12-23T00:45:27.094Z,8.20
2022-12-23T00:46:13.720Z,8.20
2022-12-23T00:47:00.259Z,8.22
2022-12-23T00:48:06.788Z,8.22
2022-12-23T00:49:12.265Z,8.21
2022-12-23T00:49:59.811Z,8.23
2022-12-23T00:50:48.159Z,8.21
2022-12-23T00:51:34.927Z,8.20
2022-12-23T00:52:21.729Z,8.21
2022-12-23T00:53:08.299Z,8.19
2022-12-23T00:53:57.490Z,8.20
2022-12-23T00:54:44.224Z,8.20
2022-12-23T00:55:31.511Z,8.19
2022-12-23T00:56:18.344Z,8.19
2022-12-23T00:57:05.139Z,8.18
2022-12-23T00:57:54.353Z,8.21
2022-12-23T00:58:40.843Z,8.22
2022-12-23T00:59:27.656Z,8.21
2022-12-23T01:00:18.074Z,8.21
2022-12-23T01:01:23.417Z,8.20
2022-12-23T01:02:30.651Z,8.22
2022-12-23T01:03:36.112Z,8.23
2022-12-23T01:04:44.778Z,8.23
2022-12-23T01:05:37.159Z,8.24
2022-12-23T01:06:23.663Z,8.22
2022-12-23T01:07:10.541Z,8.24
2022-12-23T01:07:57.328Z,8.21
2022-12-23T01:08:44.062Z,8.22
2022-12-23T01:09:30.854Z,8.22
2022-12-23T01:10:17.475Z,8.22
2022-12-23T01:11:09.372Z,8.24
2022-12-23T01:11:56.126Z,8.25
2022-12-23T01:12:42.645Z,8.25
2022-12-23T01:13:29.301Z,8.27
2022-12-23T01:14:17.515Z,8.27
2022-12-23T01:15:04.467Z,8.28
2022-12-23T01:15:51.146Z,8.28
2022-12-23T01:16:39.030Z,8.29
2022-12-23T01:17:25.789Z,8.26
2022-12-23T01:18:13.538Z,8.29
2022-12-23T01:19:00.271Z,8.30
2022-12-23T01:19:47.251Z,8.29
2022-12-23T01:20:34.002Z,8.31
2022-12-23T01:21:20.896Z,8.31
2022-12-23T01:22:07.398Z,8.30
2022-12-23T01:22:54.241Z,8.29
2022-12-23T01:23:41.086Z,8.28
2022-12-23T01:24:30.043Z,8.30
2022-12-23T01:25:18.258Z,8.29
2022-12-23T01:26:10.960Z,8.31
2022-12-23T01:26:58.392Z,8.28
2022-12-23T01:27:45.231Z,8.28
2022-12-23T01:28:34.131Z,8.29
2022-12-23T01:29:20.956Z,8.30
2022-12-23T01:30:08.542Z,8.29
2022-12-23T01:30:55.944Z,8.29
2022-12-23T01:31:43.166Z,8.28
2022-12-23T01:32:30.259Z,8.25
2022-12-23T01:33:17.241Z,8.25
2022-12-23T01:34:03.993Z,8.24
2022-12-23T01:34:50.792Z,8.24
2022-12-23T01:35:37.382Z,8.23
2022-12-23T01:36:23.938Z,8.23
2022-12-23T01:37:10.691Z,8.27
2022-12-23T01:37:57.526Z,8.28
2022-12-23T01:38:44.826Z,8.25
2022-12-23T01:39:31.528Z,8.22
2022-12-23T01:40:18.572Z,8.23
2022-12-23T01:41:05.600Z,8.20
2022-12-23T01:42:10.787Z,8.19
2022-12-23T01:42:57.359Z,8.17
2022-12-23T01:43:45.934Z,8.16
2022-12-23T01:44:53.648Z,8.12
2022-12-23T01:45:40.204Z,8.10
2022-12-23T01:46:27.010Z,8.09
2022-12-23T01:47:17.973Z,8.08
2022-12-23T01:48:09.963Z,8.07
2022-12-23T01:48:57.669Z,8.05
2022-12-23T01:49:44.502Z,8.02
2022-12-23T01:50:55.386Z,8.02
2022-12-23T01:51:42.990Z,8.01
2022-12-23T01:52:34.343Z,7.99
2022-12-23T01:53:28.593Z,8.03
2022-12-23T01:54:15.606Z,8.05
2022-12-23T01:55:02.589Z,8.07
2022-12-23T01:55:59.321Z,8.05
2022-12-23T01:56:46.311Z,8.06
2022-12-23T01:57:35.941Z,8.08
2022-12-23T01:58:36.044Z,8.10
2022-12-23T01:59:45.933Z,8.09
2022-12-23T02:00:51.135Z,8.10
2022-12-23T02:01:56.552Z,8.11
2022-12-23T02:03:02.928Z,8.13
2022-12-23T02:03:55.398Z,8.14
2022-12-23T02:04:43.439Z,8.11
2022-12-23T02:05:30.713Z,8.14
2022-12-23T02:06:42.711Z,8.12
2022-12-23T02:07:48.183Z,8.14
2022-12-23T02:08:53.623Z,8.17
2022-12-23T02:09:40.642Z,8.19
2022-12-23T02:10:40.767Z,8.21
2022-12-23T02:11:49.183Z,8.27
2022-12-23T02:13:14.597Z,8.32
2022-12-23T02:14:40.936Z,8.35
2022-12-23T02:16:18.102Z,8.35
2022-12-23T02:17:35.917Z,8.35
2022-12-23T02:18:41.513Z,8.36
2022-12-23T02:20:10.121Z,8.40
2022-12-23T02:21:12.367Z,8.37
2022-12-23T02:22:17.934Z,8.41
2022-12-23T02:23:33.574Z,8.43
2022-12-23T02:24:46.472Z,8.46
2022-12-23T02:26:15.163Z,8.48
2022-12-23T02:27:30.646Z,8.47
2022-12-23T02:28:55.787Z,8.46
2022-12-23T02:30:03.360Z,8.46
2022-12-23T02:31:25.075Z,8.48
2022-12-23T02:32:26.826Z,8.48
2022-12-23T02:33:39.887Z,8.48
2022-12-23T02:34:52.645Z,8.51
2022-12-23T02:36:00.868Z,8.48
2022-12-23T02:36:55.187Z,8.49
2022-12-23T02:37:54.388Z,8.50
2022-12-23T02:38:54.858Z,8.53
2022-12-23T02:39:59.651Z,8.54
2022-12-23T02:40:58.264Z,8.54
2022-12-23T02:42:15.298Z,8.57
2022-12-23T02:43:34.143Z,8.61
2022-12-23T02:44:25.917Z,8.62
2022-12-23T02:45:30.935Z,8.62
2022-12-23T02:46:36.852Z,8.63
2022-12-23T02:47:48.243Z,8.63
2022-12-23T02:49:02.091Z,8.64
2022-12-23T02:49:58.833Z,8.64
2022-12-23T02:50:49.052Z,8.64
2022-12-23T02:51:44.435Z,8.62
2022-12-23T02:52:34.716Z,8.62
2022-12-23T02:53:33.380Z,8.66
2022-12-23T02:54:31.095Z,8.71
2022-12-23T02:55:32.505Z,8.73
2022-12-23T02:56:23.448Z,8.71
2022-12-23T02:57:14.153Z,8.72
2022-12-23T02:58:06.028Z,8.71
2022-12-23T02:59:15.110Z,8.73
2022-12-23T03:00:03.527Z,8.74
2022-12-23T03:00:54.761Z,8.75
2022-12-23T03:01:44.919Z,8.75
2022-12-23T03:02:40.500Z,8.77
2022-12-23T03:03:28.473Z,8.77
2022-12-23T03:04:15.884Z,8.79
2022-12-23T03:05:02.770Z,8.77
2022-12-23T03:05:51.623Z,8.79
2022-12-23T03:06:46.278Z,8.77
2022-12-23T03:07:35.685Z,8.78
2022-12-23T03:08:42.561Z,8.75
2022-12-23T03:09:51.624Z,8.74
2022-12-23T03:11:09.827Z,8.78
2022-12-23T03:12:10.514Z,8.83
2022-12-23T03:13:10.173Z,8.85
2022-12-23T03:13:59.092Z,8.90
2022-12-23T03:15:03.776Z,8.93
2022-12-23T03:16:08.624Z,8.94
2022-12-23T03:17:30.503Z,8.93
2022-12-23T03:18:41.307Z,8.97
2022-12-23T03:19:40.034Z,8.99
2022-12-23T03:20:29.679Z,8.98
2022-12-23T03:21:31.827Z,8.95
2022-12-23T03:22:34.377Z,9.04
2022-12-23T03:23:34.695Z,9.02
2022-12-23T03:24:46.563Z,9.00
2022-12-23T03:25:42.736Z,9.00
2022-12-23T03:26:53.286Z,9.01
2022-12-23T03:27:52.053Z,8.99
2022-12-23T03:29:01.732Z,9.01
2022-12-23T03:29:54.239Z,9.13
2022-12-23T03:30:47.463Z,9.11
2022-12-23T03:31:38.024Z,9.14
2022-12-23T03:32:29.513Z,9.12
